Time;durP1;ratioP1;P1;durP2;ratioP2;P2;SDS_P1;SDS_P2;PMS_P1;PMS_P2;Temp;Humidity;BMP_temperature;BMP_pressure;BME280_temperature;BME280_humidity;BME280_pressure;Samples;Min_cycle;Max_cycle;Signal;HPM_P1;HPM_P2
2021/03/21 00:00:36;;;;;;;7.90;3.53;;;6.00;63.50;;;;;;5052212;28;20209;-62
2021/03/21 00:03:03;;;;;;;6.47;3.80;;;6.00;63.70;;;;;;5051920;28;20778;-63
2021/03/21 00:05:30;;;;;;;6.07;3.50;;;6.00;64.80;;;;;;5051697;28;20233;-62
2021/03/21 00:07:58;;;;;;;5.40;3.90;;;6.00;64.10;;;;;;5051716;28;20205;-63
2021/03/21 00:10:25;;;;;;;6.30;3.80;;;6.00;64.30;;;;;;5052099;28;20209;-63
2021/03/21 00:12:53;;;;;;;5.80;4.10;;;5.90;64.20;;;;;;5052011;28;20210;-63
2021/03/21 00:15:19;;;;;;;6.13;4.00;;;5.90;64.30;;;;;;5051389;28;20713;-64
2021/03/21 00:17:46;;;;;;;5.87;4.00;;;5.90;64.50;;;;;;5052068;28;20680;-64
2021/03/21 00:20:15;;;;;;;4.10;3.63;;;6.00;64.10;;;;;;5051924;28;20213;-63
2021/03/21 00:22:41;;;;;;;4.40;3.70;;;6.00;64.10;;;;;;5051947;28;20233;-63
2021/03/21 00:25:10;;;;;;;6.20;3.60;;;6.00;64.20;;;;;;5051948;28;20264;-64
2021/03/21 00:27:36;;;;;;;5.30;3.50;;;6.00;63.30;;;;;;5051702;28;20294;-64
2021/03/21 00:30:08;;;;;;;5.23;3.93;;;6.00;63.30;;;;;;5051519;28;20591;-64
2021/03/21 00:32:34;;;;;;;7.13;3.80;;;6.00;63.70;;;;;;5052000;28;20205;-64
2021/03/21 00:35:00;;;;;;;7.27;4.00;;;6.10;63.30;;;;;;5051580;28;20221;-63
2021/03/21 00:37:27;;;;;;;6.20;3.93;;;6.10;63.00;;;;;;5051742;28;20206;-63
2021/03/21 00:39:53;;;;;;;4.70;3.43;;;6.10;62.80;;;;;;5051905;28;20433;-63
2021/03/21 00:42:19;;;;;;;7.00;3.73;;;6.20;62.60;;;;;;5051640;28;20677;-63
2021/03/21 00:44:45;;;;;;;4.73;3.47;;;6.20;61.30;;;;;;5051313;28;20289;-63
2021/03/21 00:47:12;;;;;;;5.30;3.50;;;6.20;61.10;;;;;;5051882;28;20221;-63
2021/03/21 00:49:38;;;;;;;7.93;3.57;;;6.30;61.80;;;;;;5052159;28;20209;-64
2021/03/21 00:52:05;;;;;;;5.47;3.83;;;6.20;60.70;;;;;;5051760;28;20210;-62
2021/03/21 00:54:31;;;;;;;4.53;3.30;;;6.20;61.20;;;;;;5051313;28;20431;-65
2021/03/21 00:56:57;;;;;;;4.03;2.97;;;6.20;61.80;;;;;;5051403;28;20209;-63
2021/03/21 00:59:23;;;;;;;5.97;3.70;;;6.20;62.00;;;;;;5051067;28;20614;-63
2021/03/21 01:01:50;;;;;;;3.30;3.00;;;6.20;62.20;;;;;;5051532;28;20209;-63
2021/03/21 01:04:17;;;;;;;7.73;3.93;;;6.10;62.10;;;;;;5051090;28;20294;-64
2021/03/21 01:06:43;;;;;;;5.67;3.17;;;6.10;62.40;;;;;;5051165;28;20210;-64
2021/03/21 01:09:13;;;;;;;6.67;3.80;;;6.10;62.50;;;;;;5051422;28;20205;-64
2021/03/21 01:11:40;;;;;;;5.17;3.60;;;6.20;62.80;;;;;;5051702;28;20209;-63
2021/03/21 01:14:08;;;;;;;4.40;2.97;;;6.20;62.60;;;;;;5050760;28;20701;-64
2021/03/21 01:16:36;;;;;;;3.97;3.20;;;6.30;62.60;;;;;;5050972;28;20202;-64
2021/03/21 01:19:03;;;;;;;3.33;2.80;;;6.30;63.10;;;;;;5050949;28;20237;-63
2021/03/21 01:21:34;;;;;;;4.87;3.60;;;6.30;62.60;;;;;;5055313;28;20609;-64
2021/03/21 01:24:00;;;;;;;3.87;3.00;;;6.40;62.80;;;;;;5055055;28;20225;-64
2021/03/21 01:26:28;;;;;;;6.83;3.73;;;6.40;62.80;;;;;;5055238;28;20236;-65
2021/03/21 01:28:56;;;;;;;7.03;3.70;;;6.40;62.70;;;;;;5055042;28;20681;-63
2021/03/21 01:31:24;;;;;;;4.90;3.80;;;6.40;62.70;;;;;;5055642;28;20209;-63
2021/03/21 01:33:50;;;;;;;6.33;3.90;;;6.50;62.80;;;;;;5055659;28;20505;-64
2021/03/21 01:36:19;;;;;;;5.30;3.97;;;6.50;62.80;;;;;;5055875;28;20209;-64
2021/03/21 01:38:46;;;;;;;5.60;4.30;;;6.50;62.80;;;;;;5055474;28;20267;-65
2021/03/21 01:41:17;;;;;;;5.23;3.57;;;6.50;62.70;;;;;;5056067;28;20205;-63
2021/03/21 01:43:45;;;;;;;4.87;3.40;;;6.60;62.90;;;;;;5055553;28;20229;-63
2021/03/21 01:46:16;;;;;;;3.73;3.13;;;6.60;62.90;;;;;;5055519;28;20209;-63
2021/03/21 01:48:46;;;;;;;4.97;3.00;;;6.60;62.90;;;;;;5055463;28;20210;-63
2021/03/21 01:51:15;;;;;;;4.80;3.43;;;6.60;62.90;;;;;;5055026;28;20209;-63
2021/03/21 01:53:45;;;;;;;5.07;3.40;;;6.60;62.90;;;;;;5054937;28;20255;-62
2021/03/21 01:56:13;;;;;;;5.23;3.47;;;6.60;62.90;;;;;;5054993;28;20205;-64
2021/03/21 01:58:43;;;;;;;5.53;3.50;;;6.60;62.90;;;;;;5054746;28;20700;-63
2021/03/21 02:01:13;;;;;;;4.10;3.17;;;6.60;62.60;;;;;;5054702;28;20212;-63
2021/03/21 02:03:40;;;;;;;6.53;3.07;;;6.60;62.90;;;;;;5054316;28;20248;-64
2021/03/21 02:06:20;;;;;;;4.20;3.10;;;6.60;62.90;;;;;;5055221;28;20206;-64
2021/03/21 02:08:52;;;;;;;5.20;3.10;;;6.60;63.60;;;;;;5054913;28;20202;-63
2021/03/21 02:11:32;;;;;;;7.10;3.40;;;6.60;62.90;;;;;;5054678;28;20255;-63
2021/03/21 02:14:07;;;;;;;3.97;3.00;;;6.50;63.30;;;;;;5054343;28;20229;-63
2021/03/21 02:16:39;;;;;;;5.50;3.43;;;6.50;63.60;;;;;;5054110;28;20201;-62
2021/03/21 02:19:19;;;;;;;4.80;3.30;;;6.50;63.60;;;;;;5054121;28;20217;-63
2021/03/21 02:21:50;;;;;;;5.43;3.20;;;6.50;63.80;;;;;;5053892;28;20259;-63
2021/03/21 02:24:45;;;;;;;3.87;3.00;;;6.50;63.70;;;;;;5053544;28;20244;-62
2021/03/21 02:27:24;;;;;;;5.03;3.03;;;6.60;63.20;;;;;;5054365;28;20210;-64
2021/03/21 02:29:56;;;;;;;4.17;3.10;;;6.60;62.90;;;;;;5055463;28;20206;-62
2021/03/21 02:32:27;;;;;;;5.50;3.40;;;6.50;62.80;;;;;;5054121;28;20232;-63
2021/03/21 02:35:06;;;;;;;3.60;2.80;;;6.50;63.10;;;;;;5053767;28;20222;-64
2021/03/21 02:37:37;;;;;;;5.53;3.80;;;6.50;63.50;;;;;;5054205;28;20213;-63
2021/03/21 02:40:14;;;;;;;4.33;3.33;;;6.50;63.80;;;;;;5053765;28;20201;-63
2021/03/21 02:42:45;;;;;;;5.80;3.33;;;6.50;63.30;;;;;;5053604;28;20570;-63
2021/03/21 02:45:16;;;;;;;3.97;2.90;;;6.50;62.80;;;;;;5054001;28;20233;-64
2021/03/21 02:47:46;;;;;;;5.03;3.13;;;6.40;62.70;;;;;;5053122;28;20214;-63
2021/03/21 02:50:18;;;;;;;4.57;3.00;;;6.40;62.80;;;;;;5053546;28;20267;-63
2021/03/21 02:52:48;;;;;;;3.67;2.67;;;6.40;62.70;;;;;;5053414;28;20208;-62
2021/03/21 02:55:21;;;;;;;5.00;3.30;;;6.40;62.70;;;;;;5053557;28;20226;-63
2021/03/21 02:57:52;;;;;;;4.00;3.00;;;6.40;63.10;;;;;;5053135;28;20212;-64
2021/03/21 03:00:24;;;;;;;4.03;2.93;;;6.40;63.40;;;;;;5053126;28;20209;-63
2021/03/21 03:02:53;;;;;;;3.77;3.00;;;6.40;64.20;;;;;;5053676;28;20218;-64
2021/03/21 03:05:24;;;;;;;5.87;3.10;;;6.40;63.50;;;;;;5053287;28;20783;-64
2021/03/21 03:07:54;;;;;;;3.93;3.10;;;6.40;63.70;;;;;;5052932;28;20209;-64
2021/03/21 03:10:28;;;;;;;4.80;3.03;;;6.40;63.90;;;;;;5053425;28;20220;-64
2021/03/21 03:13:03;;;;;;;4.70;3.30;;;6.40;64.30;;;;;;5053632;28;20209;-63
2021/03/21 03:15:30;;;;;;;6.07;3.80;;;6.40;64.10;;;;;;5053357;28;20266;-63
2021/03/21 03:18:02;;;;;;;4.30;3.60;;;6.40;64.30;;;;;;5052749;28;20209;-64
2021/03/21 03:20:37;;;;;;;6.07;3.50;;;6.40;64.40;;;;;;5053383;28;20216;-62
2021/03/21 03:23:12;;;;;;;5.33;3.80;;;6.40;64.30;;;;;;5052655;28;20225;-63
2021/03/21 03:25:44;;;;;;;7.30;3.57;;;6.40;64.10;;;;;;5052814;28;20244;-64
2021/03/21 03:28:18;;;;;;;6.47;3.10;;;6.40;63.80;;;;;;5052672;28;20685;-64
2021/03/21 03:30:54;;;;;;;5.23;3.40;;;6.40;63.50;;;;;;5053013;28;20233;-62
2021/03/21 03:33:23;;;;;;;5.70;3.37;;;6.30;63.80;;;;;;5053495;28;20209;-63
2021/03/21 03:35:49;;;;;;;5.20;3.13;;;6.30;63.80;;;;;;5053737;28;20233;-63
2021/03/21 03:38:16;;;;;;;4.70;3.20;;;6.30;64.20;;;;;;5053586;28;20205;-64
2021/03/21 03:40:44;;;;;;;4.50;3.33;;;6.30;64.10;;;;;;5053309;28;20201;-64
2021/03/21 03:43:29;;;;;;;4.37;2.87;;;6.30;63.80;;;;;;5051839;28;20225;-64
2021/03/21 03:46:05;;;;;;;5.00;3.40;;;6.30;64.00;;;;;;5052496;28;20225;-64
2021/03/21 03:48:43;;;;;;;4.47;2.80;;;6.20;63.50;;;;;;5052350;28;20212;-63
2021/03/21 03:51:15;;;;;;;4.30;3.13;;;6.20;63.70;;;;;;5052312;28;20206;-64
2021/03/21 03:53:57;;;;;;;4.83;2.93;;;6.20;64.00;;;;;;5052054;28;20206;-64
2021/03/21 03:56:30;;;;;;;4.43;2.90;;;6.30;64.00;;;;;;5052213;28;20210;-64
2021/03/21 03:59:08;;;;;;;4.13;3.17;;;6.30;64.30;;;;;;5052244;28;20259;-64
2021/03/21 04:01:42;;;;;;;6.07;3.13;;;6.20;64.50;;;;;;5052197;28;20235;-66
2021/03/21 04:04:17;;;;;;;5.33;3.53;;;6.30;64.80;;;;;;5051677;28;20240;-63
2021/03/21 04:06:53;;;;;;;4.10;2.83;;;6.30;64.90;;;;;;5051811;28;20233;-64
2021/03/21 04:09:26;;;;;;;5.67;3.13;;;6.30;65.00;;;;;;5051967;28;20247;-64
2021/03/21 04:11:57;;;;;;;6.17;3.30;;;6.30;64.90;;;;;;5052039;28;20256;-65
2021/03/21 04:14:31;;;;;;;4.47;3.07;;;6.30;64.60;;;;;;5051716;28;20230;-63
2021/03/21 04:17:05;;;;;;;6.43;3.10;;;6.30;65.00;;;;;;5052067;28;20211;-63
2021/03/21 04:19:37;;;;;;;4.30;3.17;;;6.20;65.10;;;;;;5052327;28;20209;-63
2021/03/21 04:22:08;;;;;;;4.00;3.13;;;6.10;65.30;;;;;;5051992;28;20220;-61
2021/03/21 04:24:39;;;;;;;6.10;3.60;;;6.10;65.50;;;;;;5051592;28;20236;-64
2021/03/21 04:27:09;;;;;;;4.33;3.10;;;6.10;65.60;;;;;;5051788;28;20663;-64
2021/03/21 04:29:43;;;;;;;4.50;3.30;;;6.10;65.60;;;;;;5051547;28;20206;-62
2021/03/21 04:32:14;;;;;;;3.93;3.10;;;6.10;65.70;;;;;;5051742;28;20209;-62
2021/03/21 04:34:45;;;;;;;4.77;3.20;;;6.20;65.60;;;;;;5051483;28;20224;-62
2021/03/21 04:37:12;;;;;;;4.80;3.17;;;6.20;65.60;;;;;;5051454;28;20209;-64
2021/03/21 04:39:40;;;;;;;4.80;3.30;;;6.20;65.40;;;;;;5051631;28;20216;-63
2021/03/21 04:42:10;;;;;;;5.17;3.33;;;6.20;65.60;;;;;;5051942;28;20209;-63
2021/03/21 04:44:43;;;;;;;4.83;3.53;;;6.30;65.90;;;;;;5051740;28;20237;-63
2021/03/21 04:47:15;;;;;;;4.97;3.27;;;6.30;65.60;;;;;;5051895;28;20212;-63
2021/03/21 04:49:41;;;;;;;3.90;3.10;;;6.30;65.50;;;;;;5051431;28;20209;-64
2021/03/21 04:52:16;;;;;;;4.57;3.10;;;6.30;65.40;;;;;;5051794;28;20221;-63
2021/03/21 04:54:46;;;;;;;3.87;2.63;;;6.30;65.40;;;;;;5051230;28;20228;-63
2021/03/21 04:57:20;;;;;;;4.53;2.80;;;6.30;65.30;;;;;;5052079;28;20214;-64
2021/03/21 04:59:47;;;;;;;4.87;3.20;;;6.20;65.20;;;;;;5051961;28;20216;-63
2021/03/21 05:02:17;;;;;;;3.60;2.70;;;6.10;65.40;;;;;;5051578;28;20264;-63
2021/03/21 05:04:47;;;;;;;3.67;2.73;;;6.10;65.80;;;;;;5050809;28;20663;-63
2021/03/21 05:07:33;;;;;;;5.40;3.20;;;6.00;65.80;;;;;;5051227;28;20754;-62
2021/03/21 05:10:04;;;;;;;3.97;2.97;;;6.10;65.90;;;;;;5051219;28;20201;-62
2021/03/21 05:12:39;;;;;;;4.17;3.20;;;6.10;65.80;;;;;;5051255;28;20210;-62
2021/03/21 05:15:14;;;;;;;6.90;3.03;;;6.20;65.70;;;;;;5050976;28;20582;-63
2021/03/21 05:17:48;;;;;;;4.27;3.10;;;6.20;65.40;;;;;;5051086;28;20201;-62
2021/03/21 05:20:22;;;;;;;5.03;3.03;;;6.20;65.40;;;;;;5051029;28;20670;-62
2021/03/21 05:22:56;;;;;;;4.57;2.80;;;6.20;65.70;;;;;;5051067;28;20224;-61
2021/03/21 05:25:27;;;;;;;3.93;2.90;;;6.20;65.60;;;;;;5051006;28;20225;-62
2021/03/21 05:28:00;;;;;;;5.43;3.33;;;6.20;65.40;;;;;;5050733;28;20441;-63
2021/03/21 05:30:30;;;;;;;5.00;3.17;;;6.30;65.50;;;;;;5051246;28;20212;-62
2021/03/21 05:32:57;;;;;;;4.20;3.17;;;6.30;66.60;;;;;;5050817;28;20565;-63
2021/03/21 05:35:27;;;;;;;5.13;3.43;;;6.30;66.50;;;;;;5050797;28;20230;-62
2021/03/21 05:38:05;;;;;;;7.60;4.23;;;6.30;67.60;;;;;;5050804;28;20271;-63
2021/03/21 05:41:20;;;;;;;5.30;3.60;;;6.30;69.30;;;;;;5050467;28;20225;-62
2021/03/21 05:44:19;;;;;;;6.20;4.13;;;6.30;70.20;;;;;;5034686;28;20228;-63
2021/03/21 05:47:09;;;;;;;6.10;4.20;;;6.40;70.50;;;;;;5019610;28;20217;-63
2021/03/21 05:49:55;;;;;;;4.67;3.77;;;6.40;70.70;;;;;;5050641;28;20205;-62
2021/03/21 05:52:53;;;;;;;5.27;3.30;;;6.40;70.30;;;;;;5050729;28;20201;-62
2021/03/21 05:55:50;;;;;;;6.03;3.00;;;6.40;67.80;;;;;;5050741;28;20236;-63
2021/03/21 05:58:47;;;;;;;4.73;3.03;;;6.40;66.50;;;;;;5050780;28;20233;-63
2021/03/21 06:01:54;;;;;;;3.57;2.70;;;6.40;66.50;;;;;;5050418;28;20268;-63
2021/03/21 06:05:06;;;;;;;5.03;2.83;;;6.40;66.50;;;;;;5050493;28;20296;-63
2021/03/21 06:07:57;;;;;;;4.93;3.03;;;6.40;66.20;;;;;;5054128;28;20723;-63
2021/03/21 06:11:02;;;;;;;10.30;5.87;;;6.40;66.20;;;;;;5054795;28;20213;-62
2021/03/21 06:13:47;;;;;;;7.13;3.63;;;6.40;66.40;;;;;;5054565;28;20198;-62
2021/03/21 06:16:40;;;;;;;9.50;5.03;;;6.50;66.10;;;;;;5054662;28;20205;-63
2021/03/21 06:19:32;;;;;;;5.47;3.83;;;6.50;65.80;;;;;;5055066;28;20210;-63
2021/03/21 06:22:35;;;;;;;8.43;5.10;;;6.50;66.00;;;;;;5054460;28;20213;-63
2021/03/21 06:25:29;;;;;;;3.23;2.93;;;6.50;65.90;;;;;;5054399;28;20229;-63
2021/03/21 06:28:17;;;;;;;4.70;2.90;;;6.50;66.00;;;;;;5054371;28;20212;-63
2021/03/21 06:31:05;;;;;;;4.60;3.07;;;6.60;66.00;;;;;;5054683;28;20217;-64
2021/03/21 06:33:45;;;;;;;5.80;3.67;;;6.60;65.80;;;;;;5046187;28;20698;-64
2021/03/21 06:36:20;;;;;;;5.27;3.50;;;6.70;66.20;;;;;;5054025;28;20251;-63
2021/03/21 06:39:10;;;;;;;4.70;3.23;;;6.70;66.00;;;;;;5053862;28;20205;-63
2021/03/21 06:42:07;;;;;;;6.57;3.17;;;6.70;65.80;;;;;;5054285;28;20213;-64
2021/03/21 06:44:55;;;;;;;5.13;3.23;;;6.80;66.00;;;;;;5053596;28;20713;-63
2021/03/21 06:47:35;;;;;;;5.80;3.90;;;6.90;65.80;;;;;;5053869;28;20512;-64
2021/03/21 06:50:23;;;;;;;8.40;4.87;;;6.90;65.70;;;;;;5054183;28;20209;-63
2021/03/21 06:52:58;;;;;;;4.30;3.40;;;7.00;65.60;;;;;;5054421;28;20596;-63
2021/03/21 06:55:35;;;;;;;9.07;6.40;;;7.10;65.40;;;;;;5053965;28;20278;-63
2021/03/21 06:58:38;;;;;;;4.97;3.17;;;7.20;65.10;;;;;;5053890;28;20689;-63
2021/03/21 07:01:20;;;;;;;5.17;2.90;;;7.20;64.50;;;;;;5055428;28;20202;-62
2021/03/21 07:04:36;;;;;;;4.50;2.87;;;7.30;64.60;;;;;;5054395;28;20229;-62
2021/03/21 07:07:52;;;;;;;5.57;2.80;;;7.30;64.30;;;;;;5054873;28;20213;-62
2021/03/21 07:10:51;;;;;;;3.90;2.77;;;7.30;64.60;;;;;;5055243;28;20205;-63
2021/03/21 07:13:58;;;;;;;6.30;3.10;;;7.40;64.90;;;;;;5021194;28;20202;-64
2021/03/21 07:16:59;;;;;;;5.73;3.13;;;7.40;64.90;;;;;;5055039;28;20263;-63
2021/03/21 07:20:18;;;;;;;6.17;3.10;;;7.50;64.70;;;;;;5054279;28;20660;-64
2021/03/21 07:23:22;;;;;;;8.50;5.87;;;7.60;64.90;;;;;;5055234;28;20197;-63
2021/03/21 07:26:11;;;;;;;6.57;3.77;;;7.60;64.70;;;;;;5055232;28;20221;-63
2021/03/21 07:29:22;;;;;;;3.90;2.93;;;7.60;64.30;;;;;;5054575;28;20209;-69
2021/03/21 07:32:16;;;;;;;5.83;3.93;;;7.60;64.40;;;;;;5054946;28;20205;-63
2021/03/21 07:35:02;;;;;;;6.30;4.20;;;7.60;65.00;;;;;;5054054;28;20222;-63
2021/03/21 07:37:41;;;;;;;6.30;3.87;;;7.60;65.00;;;;;;5053877;28;20304;-63
2021/03/21 07:40:18;;;;;;;5.73;3.30;;;7.60;65.10;;;;;;5052921;28;20202;-63
2021/03/21 07:43:28;;;;;;;6.37;4.20;;;7.70;65.40;;;;;;5052920;28;20635;-63
2021/03/21 07:46:19;;;;;;;3.50;2.87;;;7.60;65.90;;;;;;5016689;28;20205;-62
2021/03/21 07:49:15;;;;;;;6.37;4.50;;;7.60;65.60;;;;;;5051804;28;20209;-62
2021/03/21 07:52:01;;;;;;;4.10;3.30;;;7.70;65.80;;;;;;5052285;28;20216;-62
2021/03/21 07:54:36;;;;;;;4.83;3.17;;;7.80;65.30;;;;;;5052471;28;20230;-63
2021/03/21 07:57:12;;;;;;;7.30;4.13;;;7.80;65.30;;;;;;5052367;28;20228;-63
2021/03/21 07:59:40;;;;;;;4.10;3.10;;;7.70;65.20;;;;;;5052247;28;20589;-62
2021/03/21 08:02:10;;;;;;;4.00;2.57;;;7.80;65.10;;;;;;5052563;28;20201;-63
2021/03/21 08:04:46;;;;;;;5.40;2.53;;;7.80;64.70;;;;;;5051829;28;20291;-57
2021/03/21 08:07:16;;;;;;;7.77;3.77;;;7.70;64.40;;;;;;5052214;28;20212;-57
2021/03/21 08:09:42;;;;;;;4.77;2.90;;;7.60;64.30;;;;;;5052227;28;20568;-57
2021/03/21 08:12:30;;;;;;;5.47;2.63;;;7.50;64.70;;;;;;5051927;28;20597;-56
2021/03/21 08:15:02;;;;;;;4.43;3.00;;;7.60;64.60;;;;;;5051720;28;20225;-57
2021/03/21 08:17:32;;;;;;;6.13;3.13;;;7.80;64.30;;;;;;5051759;28;20556;-57
2021/03/21 08:20:03;;;;;;;3.77;2.83;;;8.10;64.20;;;;;;5052207;28;20231;-57
2021/03/21 08:22:31;;;;;;;3.27;2.57;;;8.10;63.20;;;;;;5052306;28;20461;-57
2021/03/21 08:25:02;;;;;;;3.77;3.07;;;8.20;62.90;;;;;;5051749;28;20229;-57
2021/03/21 08:27:30;;;;;;;4.07;2.80;;;8.30;62.80;;;;;;5051912;28;20666;-57
2021/03/21 08:29:59;;;;;;;4.77;3.17;;;8.50;62.80;;;;;;5051451;28;20205;-57
2021/03/21 08:32:27;;;;;;;3.90;3.20;;;8.50;62.80;;;;;;5051657;28;20205;-57
2021/03/21 08:34:54;;;;;;;3.90;3.00;;;8.70;63.40;;;;;;5051071;28;20218;-57
2021/03/21 08:37:26;;;;;;;5.57;3.30;;;8.60;62.50;;;;;;5051340;28;20433;-58
2021/03/21 08:39:56;;;;;;;5.57;3.30;;;8.80;62.60;;;;;;5051581;28;20201;-57
2021/03/21 08:42:32;;;;;;;6.20;3.80;;;8.90;62.60;;;;;;5051304;28;20211;-57
2021/03/21 08:45:21;;;;;;;5.23;3.27;;;8.90;62.70;;;;;;5050897;28;20229;-57
2021/03/21 08:47:55;;;;;;;5.23;3.87;;;8.80;62.70;;;;;;5051137;28;20279;-57
2021/03/21 08:50:35;;;;;;;5.87;4.07;;;8.70;63.00;;;;;;5051426;28;20208;-57
2021/03/21 08:53:03;;;;;;;6.33;3.87;;;8.70;63.20;;;;;;5051596;28;20208;-58
2021/03/21 08:55:32;;;;;;;6.50;3.70;;;8.60;63.80;;;;;;5051101;28;20228;-57
2021/03/21 08:58:00;;;;;;;5.63;3.73;;;8.60;63.70;;;;;;5051222;28;20209;-57
2021/03/21 09:00:33;;;;;;;5.10;3.60;;;8.90;63.90;;;;;;5051213;28;20212;-58
2021/03/21 09:03:00;;;;;;;5.30;3.60;;;9.00;63.00;;;;;;5051357;28;20629;-57
2021/03/21 09:05:26;;;;;;;5.87;3.57;;;9.10;62.80;;;;;;5051500;28;20240;-57
2021/03/21 09:08:07;;;;;;;5.83;3.77;;;9.10;63.10;;;;;;5050863;28;20696;-57
2021/03/21 09:10:34;;;;;;;5.90;3.73;;;8.90;63.10;;;;;;5051127;28;20259;-57
2021/03/21 09:13:18;;;;;;;7.13;4.00;;;8.90;63.20;;;;;;5050951;28;20202;-58
2021/03/21 09:15:46;;;;;;;4.30;3.40;;;8.90;63.50;;;;;;5050936;28;20484;-57
2021/03/21 09:18:25;;;;;;;4.60;3.30;;;8.90;63.90;;;;;;5051128;28;20208;-57
2021/03/21 09:20:59;;;;;;;4.37;3.50;;;8.90;64.00;;;;;;5051291;28;20209;-57
2021/03/21 09:23:34;;;;;;;6.03;3.50;;;9.00;63.90;;;;;;5051607;28;20236;-64
2021/03/21 09:26:01;;;;;;;6.97;4.83;;;9.00;63.10;;;;;;5054116;28;20208;-64
2021/03/21 09:28:33;;;;;;;4.30;3.20;;;9.20;63.30;;;;;;5054669;28;20212;-64
2021/03/21 09:31:02;;;;;;;6.03;3.50;;;9.20;63.60;;;;;;5054048;28;20205;-64
2021/03/21 09:33:36;;;;;;;6.50;3.60;;;9.30;63.40;;;;;;5053469;28;20198;-63
2021/03/21 09:36:11;;;;;;;5.40;3.53;;;9.30;62.80;;;;;;5054787;28;20209;-64
2021/03/21 09:38:49;;;;;;;7.60;4.17;;;9.40;64.00;;;;;;5053962;28;20204;-64
2021/03/21 09:41:17;;;;;;;4.63;3.73;;;9.40;63.00;;;;;;5054509;28;20210;-64
2021/03/21 09:43:48;;;;;;;4.10;3.00;;;9.50;62.90;;;;;;5056960;28;20240;-63
2021/03/21 09:46:24;;;;;;;4.23;3.27;;;9.60;63.50;;;;;;5058100;28;20284;-63
2021/03/21 09:49:02;;;;;;;6.57;4.13;;;9.60;63.20;;;;;;5057561;28;20215;-64
2021/03/21 09:51:41;;;;;;;4.77;3.20;;;9.70;63.30;;;;;;5057983;28;20216;-65
2021/03/21 09:54:16;;;;;;;4.50;3.37;;;9.80;63.10;;;;;;5057950;28;20255;-64
2021/03/21 09:56:50;;;;;;;6.03;3.50;;;9.90;63.00;;;;;;5058627;28;20209;-65
2021/03/21 09:59:29;;;;;;;3.57;2.87;;;10.10;62.30;;;;;;5058700;28;20201;-65
2021/03/21 10:02:02;;;;;;;4.77;3.57;;;10.30;62.20;;;;;;5058551;28;20217;-65
2021/03/21 10:04:35;;;;;;;4.50;3.10;;;10.50;62.30;;;;;;5058542;28;20236;-65
2021/03/21 10:07:07;;;;;;;4.13;3.37;;;10.50;61.90;;;;;;5057388;28;20633;-65
2021/03/21 10:09:36;;;;;;;4.80;3.70;;;10.60;62.20;;;;;;5056633;28;20214;-64
2021/03/21 10:12:06;;;;;;;5.97;3.97;;;10.80;62.00;;;;;;5055556;28;20251;-64
2021/03/21 10:15:07;;;;;;;5.23;3.90;;;11.00;62.10;;;;;;5056850;28;20221;-63
2021/03/21 10:17:43;;;;;;;4.80;4.07;;;11.10;62.70;;;;;;5057009;28;20635;-65
2021/03/21 10:20:13;;;;;;;5.83;4.30;;;11.10;62.90;;;;;;5057518;28;20224;-64
2021/03/21 10:22:58;;;;;;;7.90;4.57;;;11.10;64.30;;;;;;5057407;28;20206;-65
2021/03/21 10:26:03;;;;;;;5.97;4.57;;;11.10;65.50;;;;;;5054886;28;20234;-64
2021/03/21 10:28:33;;;;;;;5.40;4.40;;;11.00;66.50;;;;;;5055176;28;20209;-64
2021/03/21 10:31:36;;;;;;;5.43;4.23;;;11.10;67.20;;;;;;5054966;28;20205;-63
2021/03/21 10:34:46;;;;;;;5.33;4.10;;;11.30;67.10;;;;;;5053934;28;20223;-64
2021/03/21 10:37:32;;;;;;;6.40;4.10;;;11.30;67.00;;;;;;5054790;28;20201;-63
2021/03/21 10:40:03;;;;;;;6.40;4.83;;;11.40;67.70;;;;;;5053690;28;20583;-63
2021/03/21 10:42:51;;;;;;;5.40;4.27;;;11.30;69.30;;;;;;5054036;28;20275;-62
2021/03/21 10:45:43;;;;;;;5.23;4.30;;;10.90;69.90;;;;;;5054114;28;20236;-63
2021/03/21 10:48:32;;;;;;;6.63;4.50;;;10.70;70.20;;;;;;5053864;28;20213;-63
2021/03/21 10:51:01;;;;;;;5.80;4.37;;;10.30;71.80;;;;;;5053912;28;20674;-63
2021/03/21 10:53:34;;;;;;;6.10;4.43;;;10.20;71.60;;;;;;5054725;28;20216;-63
2021/03/21 10:56:07;;;;;;;4.93;4.03;;;10.00;71.80;;;;;;5054034;28;20206;-63
2021/03/21 10:59:09;;;;;;;5.17;4.33;;;10.10;71.20;;;;;;5054141;28;20232;-64
2021/03/21 11:01:38;;;;;;;3.97;3.47;;;10.30;71.90;;;;;;5024388;28;20625;-64
2021/03/21 11:04:18;;;;;;;5.20;3.80;;;10.70;71.40;;;;;;5053867;28;20238;-64
2021/03/21 11:06:58;;;;;;;5.23;3.87;;;11.10;71.00;;;;;;5054193;28;20236;-63
2021/03/21 11:09:27;;;;;;;4.10;3.57;;;11.50;70.80;;;;;;5056388;28;20221;-64
2021/03/21 11:11:54;;;;;;;6.17;3.90;;;11.70;71.00;;;;;;5055711;28;20244;-64
2021/03/21 11:14:27;;;;;;;7.37;3.87;;;11.70;71.00;;;;;;5055585;28;20226;-68
2021/03/21 11:16:57;;;;;;;5.17;4.27;;;11.50;71.40;;;;;;5054182;28;20209;-64
2021/03/21 11:19:25;;;;;;;6.13;4.47;;;11.30;73.10;;;;;;5054064;28;20689;-64
2021/03/21 11:21:52;;;;;;;7.43;5.47;;;11.10;72.20;;;;;;5053690;28;20213;-63
2021/03/21 11:24:24;;;;;;;7.60;5.17;;;11.00;72.50;;;;;;5053368;28;20282;-64
2021/03/21 11:26:51;;;;;;;6.40;4.50;;;11.00;72.00;;;;;;5054677;28;20229;-64
2021/03/21 11:29:28;;;;;;;6.70;4.60;;;11.00;72.00;;;;;;5054734;28;20714;-64
2021/03/21 11:32:00;;;;;;;6.17;4.87;;;11.00;71.70;;;;;;5055396;28;20248;-64
2021/03/21 11:34:28;;;;;;;8.43;5.07;;;10.90;72.10;;;;;;5054174;28;20221;-67
2021/03/21 11:37:05;;;;;;;7.37;4.73;;;10.70;72.20;;;;;;5054008;28;20237;-63
2021/03/21 11:39:37;;;;;;;5.90;4.77;;;10.70;71.30;;;;;;5054025;28;20205;-64
2021/03/21 11:42:20;;;;;;;7.73;4.83;;;10.90;71.60;;;;;;5054787;28;20620;-64
2021/03/21 11:44:49;;;;;;;6.90;5.00;;;11.00;71.60;;;;;;5052900;28;20229;-63
2021/03/21 11:47:26;;;;;;;6.40;4.80;;;11.10;71.30;;;;;;5053263;28;20244;-64
2021/03/21 11:49:54;;;;;;;6.20;4.47;;;11.20;70.60;;;;;;5052990;28;20209;-64
2021/03/21 11:52:21;;;;;;;6.87;4.57;;;11.10;70.60;;;;;;5053525;28;20202;-64
2021/03/21 11:54:48;;;;;;;6.97;4.20;;;11.10;70.30;;;;;;5052862;28;20719;-64
2021/03/21 11:57:38;;;;;;;5.50;4.47;;;11.00;70.30;;;;;;5053553;28;20208;-64
2021/03/21 12:00:12;;;;;;;6.83;4.00;;;11.00;71.00;;;;;;5053046;28;20673;-64
2021/03/21 12:02:47;;;;;;;6.53;4.53;;;11.00;71.00;;;;;;5052465;28;20209;-64
2021/03/21 12:05:17;;;;;;;7.20;4.23;;;10.80;71.10;;;;;;5051339;28;20237;-64
2021/03/21 12:07:44;;;;;;;6.93;4.40;;;10.70;72.50;;;;;;5052037;28;20206;-63
2021/03/21 12:10:27;;;;;;;4.83;3.70;;;10.50;72.30;;;;;;5052257;28;20205;-64
2021/03/21 12:12:53;;;;;;;5.07;4.13;;;10.30;73.10;;;;;;5052686;28;20209;-64
2021/03/21 12:15:36;;;;;;;6.27;4.30;;;9.90;76.50;;;;;;5052742;28;20233;-64
2021/03/21 12:18:05;;;;;;;7.33;4.37;;;9.60;78.50;;;;;;5051551;28;20209;-64
2021/03/21 12:20:38;;;;;;;6.47;4.10;;;9.60;79.70;;;;;;5051815;28;20217;-65
2021/03/21 12:23:05;;;;;;;6.43;4.17;;;9.70;80.80;;;;;;5051829;28;20733;-64
2021/03/21 12:25:34;;;;;;;7.03;4.40;;;10.00;78.20;;;;;;5051459;28;20237;-64
2021/03/21 12:28:13;;;;;;;6.80;4.37;;;10.20;77.60;;;;;;5051351;28;20803;-63
2021/03/21 12:30:43;;;;;;;6.33;4.63;;;10.50;76.80;;;;;;5051311;28;20216;-63
2021/03/21 12:33:16;;;;;;;6.37;3.80;;;10.50;77.60;;;;;;5070567;28;20213;-63
2021/03/21 12:35:44;;;;;;;6.70;4.10;;;10.50;77.80;;;;;;5071250;28;20232;-62
2021/03/21 12:38:25;;;;;;;5.17;4.03;;;10.50;78.60;;;;;;5071491;28;20219;-61
2021/03/21 12:40:52;;;;;;;7.53;3.93;;;10.50;79.70;;;;;;5071077;28;20204;-61
2021/03/21 12:43:24;;;;;;;7.57;4.13;;;10.60;80.30;;;;;;5071572;28;20201;-62
2021/03/21 12:46:04;;;;;;;6.07;4.70;;;10.60;80.60;;;;;;5071757;28;20402;-62
2021/03/21 12:48:31;;;;;;;4.80;3.53;;;10.60;81.30;;;;;;5071456;28;20208;-61
2021/03/21 12:50:58;;;;;;;5.80;4.20;;;10.60;81.60;;;;;;5071449;28;20212;-61
2021/03/21 12:53:28;;;;;;;4.73;3.93;;;10.70;81.90;;;;;;5070953;28;20296;-63
2021/03/21 12:55:56;;;;;;;5.63;3.90;;;10.80;82.10;;;;;;5071350;28;20225;-61
2021/03/21 12:58:23;;;;;;;7.07;4.03;;;10.90;81.60;;;;;;5071086;28;20220;-65
2021/03/21 13:00:50;;;;;;;4.90;3.80;;;10.90;81.60;;;;;;5071469;28;20209;-66
2021/03/21 13:03:25;;;;;;;5.00;3.30;;;10.70;82.20;;;;;;5071172;28;20589;-65
2021/03/21 13:05:52;;;;;;;4.47;3.80;;;10.70;83.10;;;;;;5071064;28;20243;-62
2021/03/21 13:08:19;;;;;;;3.87;3.20;;;10.60;84.40;;;;;;5071066;28;20612;-61
2021/03/21 13:10:47;;;;;;;7.73;4.23;;;10.70;85.20;;;;;;5071499;28;20209;-67
2021/03/21 13:13:15;;;;;;;5.50;4.03;;;10.60;86.00;;;;;;5071217;28;20209;-63
2021/03/21 13:15:42;;;;;;;4.17;3.53;;;10.40;87.10;;;;;;5070094;28;20228;-62
2021/03/21 13:18:09;;;;;;;5.30;4.00;;;10.10;88.10;;;;;;5071205;28;20258;-64
2021/03/21 13:20:35;;;;;;;4.60;3.70;;;9.90;90.10;;;;;;5071176;28;20213;-64
2021/03/21 13:23:02;;;;;;;6.00;4.47;;;9.70;90.60;;;;;;5071570;28;20628;-63
2021/03/21 13:25:31;;;;;;;4.50;3.40;;;9.50;91.20;;;;;;5071241;28;20268;-63
2021/03/21 13:28:00;;;;;;;4.73;3.70;;;9.50;91.50;;;;;;5071316;28;20581;-64
2021/03/21 13:30:30;;;;;;;4.27;3.80;;;9.40;91.60;;;;;;5071574;28;20205;-64
2021/03/21 13:32:57;;;;;;;5.03;4.30;;;9.50;91.80;;;;;;5071014;28;20291;-64
2021/03/21 13:35:25;;;;;;;6.83;4.93;;;9.50;91.90;;;;;;5071055;28;20228;-64
2021/03/21 13:37:52;;;;;;;5.93;4.67;;;9.40;91.80;;;;;;5071301;28;20303;-64